RAMO2: Caney River, Ramona, OK

Data processed at Tue May 21 2019 23:50


All information presented herein is the property of the government of the United States of America and may be revised or deleted at any time without prior notice.
Dissemination of this information without the expressed written consent of the Public Affairs Office, Tulsa District U.S. Army Corps of Engineers is strictly prohibited.
These data are gathered electronically and, as presented, have not undergone any form of quality control. These data are not guaranteed to be valid or correct.
Go to home page.
Go to station list.
Go to home page.

Upstream stations:

Downstream station:
Previous Day
Next Day
Current Day
    
SHEF ID:       RAMO2     Caney River near Ramona, OK
STATION TYPE:  
Regulating: Stage =    26.00, Flow =    15250

               PRECIP     STAGE  STAGE(2)  RIV-FLOW   VOLTAGE  BAT-LOAD
                   in        ft        ft       cfs      volt      volt
              Ccp-Rev   Ccp-Rev   Ccp-Rev   Ccp-Rev   Ccp-Rev   Ccp-Rev
(US/Central)
05/21 00:00      0.06     22.66     16.20     11845     12.50      ----
05/21 01:00      0.33     24.43     16.48     13401     12.50      ----
05/21 02:00      0.23     25.45     16.79     14583     12.50      ----
05/21 03:00      0.01     25.99     17.12     15238     12.50      ----
05/21 04:00      0.01     26.33     17.32     15675     12.50      ----
05/21 05:00      0.13     26.52     17.51     15922     12.50      ----
05/21 06:00      0.00     26.73     17.73     16213     12.50      ----
05/21 07:00      0.69     26.87     17.87     16413     12.50      ----
05/21 08:00      0.52     27.14     18.01     16891     12.50      ----
05/21 09:00      0.20     27.48     18.20     17636     12.50      ----
05/21 10:00      0.12     27.69     18.48     18257     12.50      ----
05/21 11:00      0.01     27.86     18.68     18905     12.60      ----
05/21 12:00      0.01     27.96     18.89     19328     12.60      ----
05/21 13:00      0.00     28.02     19.15     19617     12.70      ----
05/21 14:00      0.00     28.09     19.51     20033     12.80      ----
05/21 15:00      0.00     28.17     20.47     20571     13.00      ----
05/21 16:00      0.00     28.20     20.67     20915     13.10      ----
05/21 17:00      0.00     28.31     20.43     22296     12.90      ----
05/21 18:00      0.00     28.37     20.44     23119     12.90      ----
05/21 19:00      0.00     28.48     20.49     24702     12.80      ----
05/21 20:00      0.00     28.54     20.45     25946     12.70      ----
05/21 21:00      0.00     28.63     20.41     28200     12.70      ----
05/21 22:00      0.00     28.69     20.40     29806     12.60      ----
05/21 23:00      0.00     28.78     20.48     32517     12.60      ----